Terminal Aerodrome Forecast
Issued by NWS

Home | Current Version | Previous Version | Text Only | Print | Product List | Glossary On
Versions: 1 2 3 4 5 6 7 8 9 10 11 12 13 14 15 16 17 18 19 20 21 22 23 24
000
FTUS43 KGRB 232331
TAFATW
TAF
KATW 232331Z 2400/2424 33007KT P6SM BKN025
      TEMPO 2402/2406 SCT025 BKN040
     FM240600 33007KT P6SM SCT025 BKN040
     FM241200 VRB03KT P6SM SCT030 BKN040
     FM241800 VRB03KT P6SM SCT040 BKN200=

USA.gov is the U.S. government's official web portal to all federal, state and local government web resources and services.